Time;durP1;ratioP1;P1;durP2;ratioP2;P2;SDS_P1;SDS_P2;PMS_P1;PMS_P2;Temp;Humidity;BMP_temperature;BMP_pressure;BME280_temperature;BME280_humidity;BME280_pressure;Samples;Min_cycle;Max_cycle;Signal;HPM_P1;HPM_P2
2024/02/16 00:02:18;;;;;;;6.05;2.47;;;;;;;-146.27;78.35;41880.03;5069620;28;20200;-71
2024/02/16 00:04:43;;;;;;;8.02;2.95;;;;;;;-146.27;78.27;41870.09;5070868;28;20548;-72
2024/02/16 00:07:09;;;;;;;5.68;2.83;;;;;;;-146.27;78.29;41895.94;5071871;28;20103;-71
2024/02/16 00:09:34;;;;;;;3.72;2.58;;;;;;;-146.27;78.22;41860.16;5069007;28;20040;-73
2024/02/16 00:11:59;;;;;;;5.13;2.63;;;;;;;-146.27;78.10;41858.16;5071533;28;20609;-71
2024/02/16 00:14:25;;;;;;;3.88;2.25;;;;;;;-146.27;78.35;41888.00;5070477;28;20596;-71
2024/02/16 00:16:50;;;;;;;6.72;2.58;;;;;;;-146.27;78.14;41868.09;5069776;28;20032;-72
2024/02/16 00:19:15;;;;;;;3.50;2.30;;;;;;;-146.27;78.17;41878.06;5070370;28;20028;-71
2024/02/16 00:21:42;;;;;;;3.17;2.00;;;;;;;-146.27;78.11;41884.00;5070696;28;20028;-72
2024/02/16 00:24:08;;;;;;;6.32;2.50;;;;;;;-146.27;78.03;41907.88;5064274;28;20048;-71
2024/02/16 00:26:33;;;;;;;4.72;2.92;;;;;;;-146.27;78.01;41939.69;5070459;28;20035;-71
2024/02/16 00:28:59;;;;;;;6.72;2.83;;;;;;;-146.27;77.98;41963.56;5070840;28;20028;-71
2024/02/16 00:31:24;;;;;;;3.25;2.00;;;;;;;-146.27;77.87;41915.84;5075548;28;20029;-71
2024/02/16 00:33:49;;;;;;;4.68;2.95;;;;;;;-146.27;77.69;41913.84;5071338;28;20028;-72
2024/02/16 00:36:15;;;;;;;8.27;3.15;;;;;;;-146.27;77.74;41943.66;5071065;28;20024;-71
2024/02/16 00:38:40;;;;;;;4.43;2.58;;;;;;;-146.27;77.82;41915.84;5076548;28;20564;-71
2024/02/16 00:41:07;;;;;;;8.00;3.03;;;;;;;-146.27;77.88;41947.66;5070851;28;20480;-71
2024/02/16 00:43:32;;;;;;;4.75;2.97;;;;;;;-146.27;77.90;41927.75;5070448;28;20024;-71
2024/02/16 00:45:58;;;;;;;3.10;2.40;;;;;;;-146.27;77.78;41915.84;5070098;28;20036;-72
2024/02/16 00:48:24;;;;;;;7.03;2.50;;;;;;;-146.27;77.78;41943.66;5070026;28;20017;-71
2024/02/16 00:50:49;;;;;;;5.22;2.70;;;;;;;-146.27;77.75;41953.63;5065717;28;20039;-72
2024/02/16 00:53:14;;;;;;;4.05;2.60;;;;;;;-146.27;77.78;41967.53;5070821;28;20021;-72
2024/02/16 00:55:41;;;;;;;4.63;2.38;;;;;;;-146.27;77.83;41959.56;5069672;28;20115;-73
2024/02/16 00:58:07;;;;;;;4.00;2.45;;;;;;;-146.27;77.79;41975.50;5070496;28;20032;-73
2024/02/16 01:00:32;;;;;;;5.88;2.75;;;;;;;-146.27;78.11;41979.47;5069363;28;20063;-73
2024/02/16 01:02:58;;;;;;;4.22;2.55;;;;;;;-146.27;78.01;41995.38;5068088;28;20480;-73
2024/02/16 01:05:23;;;;;;;5.20;2.75;;;;;;;-146.27;78.14;42003.31;5069765;28;20387;-73
2024/02/16 01:07:48;;;;;;;7.32;2.70;;;;;;;-146.27;78.33;42019.22;5070080;28;20036;-73
2024/02/16 01:10:14;;;;;;;6.35;3.20;;;;;;;-146.27;78.43;42005.31;5066423;28;20473;-73
2024/02/16 01:12:39;;;;;;;4.70;2.58;;;;;;;-146.27;78.24;42015.25;5070960;28;20131;-73
2024/02/16 01:15:05;;;;;;;4.80;2.60;;;;;;;-146.27;78.35;42037.13;5075238;28;20024;-73
2024/02/16 01:17:32;;;;;;;4.55;2.60;;;;;;;-146.27;78.47;42051.06;5068361;28;20564;-73
2024/02/16 01:19:58;;;;;;;4.18;2.63;;;;;;;-146.27;78.78;42059.00;5069670;28;20082;-73
2024/02/16 01:22:23;;;;;;;3.80;2.45;;;;;;;-146.27;78.81;42070.94;5070038;28;20029;-73
2024/02/16 01:24:49;;;;;;;7.28;3.05;;;;;;;-146.27;78.80;42078.88;5065068;28;20500;-73
2024/02/16 01:27:16;;;;;;;10.88;2.90;;;;;;;-146.27;78.87;42074.91;5067385;28;20059;-73
2024/02/16 01:29:41;;;;;;;5.65;2.40;;;;;;;-146.27;78.70;42082.88;5068734;28;20082;-73
2024/02/16 01:32:07;;;;;;;4.53;2.50;;;;;;;-146.27;78.79;42102.75;5069475;28;20040;-73
2024/02/16 01:34:32;;;;;;;4.40;2.60;;;;;;;-146.27;78.79;42078.88;5070423;28;20028;-73
2024/02/16 01:36:58;;;;;;;6.32;2.50;;;;;;;-146.27;78.96;42102.75;5067534;28;20042;-73
2024/02/16 01:39:23;;;;;;;5.65;2.67;;;;;;;-146.27;78.86;42126.63;5069785;28;20058;-73
2024/02/16 01:41:48;;;;;;;7.40;2.80;;;;;;;-146.27;79.01;42102.75;5069720;28;20494;-73
2024/02/16 01:44:16;;;;;;;12.95;2.83;;;;;;;-146.27;79.25;42132.59;5062750;28;20102;-73
2024/02/16 01:46:42;;;;;;;6.13;2.55;;;;;;;-146.27;79.20;42158.44;5066505;28;20020;-74
2024/02/16 01:49:08;;;;;;;7.20;2.67;;;;;;;-146.27;79.50;42134.56;5065968;28;20039;-73
2024/02/16 01:51:35;;;;;;;4.88;2.63;;;;;;;-146.27;79.89;42178.31;5067785;28;20013;-73
2024/02/16 01:54:00;;;;;;;5.78;3.17;;;;;;;-146.27;79.89;42144.50;5068149;28;20032;-73
2024/02/16 01:56:27;;;;;;;4.82;2.67;;;;;;;-146.27;79.80;42138.53;5067643;28;20033;-73
2024/02/16 01:58:52;;;;;;;4.72;2.92;;;;;;;-146.27;79.47;42166.38;5065456;28;20029;-73
2024/02/16 02:01:17;;;;;;;5.15;2.80;;;;;;;-146.27;79.60;42176.34;5067390;28;20090;-73
2024/02/16 02:03:43;;;;;;;3.67;2.75;;;;;;;-146.27;79.55;42176.34;5075294;28;20054;-71
2024/02/16 02:06:08;;;;;;;5.05;2.45;;;;;;;-146.27;79.77;42180.31;5068140;28;20029;-72
2024/02/16 02:08:34;;;;;;;4.95;2.72;;;;;;;-146.27;79.96;42166.38;5068677;28;20683;-71
2024/02/16 02:10:59;;;;;;;7.18;2.97;;;;;;;-146.27;79.87;42166.38;5066410;28;20102;-72
2024/02/16 02:13:24;;;;;;;6.72;3.15;;;;;;;-146.27;79.87;42198.19;5070027;28;20028;-73
2024/02/16 02:15:50;;;;;;;5.00;2.83;;;;;;;-146.27;79.82;42138.53;5070035;28;20531;-71
2024/02/16 02:18:15;;;;;;;4.90;2.50;;;;;;;-146.27;79.63;42168.38;5067190;28;20396;-71
2024/02/16 02:20:41;;;;;;;4.20;2.83;;;;;;;-146.27;79.83;42170.38;5072887;28;20598;-70
2024/02/16 02:23:06;;;;;;;2.67;2.13;;;;;;;-146.27;79.77;42186.28;5071182;28;20085;-71
2024/02/16 02:25:31;;;;;;;2.65;2.15;;;;;;;-146.27;79.84;42228.03;5067395;28;20074;-71
2024/02/16 02:27:57;;;;;;;6.78;2.65;;;;;;;-146.27;79.93;42202.19;5065306;28;20724;-71
2024/02/16 02:30:22;;;;;;;4.90;2.92;;;;;;;-146.27;80.03;42224.06;5071294;28;20028;-71
2024/02/16 02:32:50;;;;;;;5.15;2.97;;;;;;;-146.27;80.10;42224.06;5074760;28;20021;-72
2024/02/16 02:35:16;;;;;;;5.95;3.17;;;;;;;-146.27;80.11;42214.13;5076980;28;20016;-70
2024/02/16 02:37:41;;;;;;;4.85;2.63;;;;;;;-146.27;80.12;42226.03;5080463;28;20024;-72
2024/02/16 02:40:08;;;;;;;7.38;2.58;;;;;;;-146.27;79.86;42210.13;5070527;28;20020;-72
2024/02/16 02:42:34;;;;;;;4.50;2.85;;;;;;;-146.27;79.99;42230.03;5072356;28;20392;-71
2024/02/16 02:44:59;;;;;;;6.22;3.40;;;;;;;-146.27;79.94;42216.09;5071289;28;20016;-71
2024/02/16 02:47:25;;;;;;;5.63;2.72;;;;;;;-146.27;80.01;42216.09;5070955;28;20447;-72
2024/02/16 02:49:50;;;;;;;7.57;3.47;;;;;;;-146.27;79.96;42202.19;5073144;28;20113;-71
2024/02/16 02:52:16;;;;;;;6.60;3.00;;;;;;;-146.27;80.11;42249.91;5072196;28;20027;-72
2024/02/16 02:54:41;;;;;;;7.13;2.85;;;;;;;-146.27;80.13;42281.72;5072978;28;20071;-71
2024/02/16 02:57:07;;;;;;;6.05;2.83;;;;;;;-146.27;80.23;42261.84;5070071;28;20031;-72
2024/02/16 02:59:32;;;;;;;6.03;3.28;;;;;;;-146.27;80.24;42313.53;5069763;28;20032;-71
2024/02/16 03:01:57;;;;;;;4.18;2.92;;;;;;;-146.27;80.45;42277.75;5076735;28;20028;-71
2024/02/16 03:04:23;;;;;;;10.45;3.22;;;;;;;-146.27;80.51;42289.69;5072364;28;20024;-72
2024/02/16 03:06:51;;;;;;;6.65;3.03;;;;;;;-146.27;80.66;42295.66;5069549;28;20534;-71
2024/02/16 03:09:17;;;;;;;5.00;2.97;;;;;;;-146.27;80.57;42293.66;5069664;28;20031;-71
2024/02/16 03:21:48;;;;;;;8.02;3.28;;;;;;;-146.27;78.57;42198.19;5073830;28;20067;-71
2024/02/16 03:24:13;;;;;;;5.28;2.85;;;;;;;-146.27;78.36;42174.34;5069906;28;20063;-72
2024/02/16 03:26:39;;;;;;;6.20;2.92;;;;;;;-146.27;78.08;42142.53;5071485;28;20107;-71
2024/02/16 03:29:04;;;;;;;6.00;2.45;;;;;;;-146.27;78.00;42180.31;5071416;28;20016;-72
2024/02/16 03:31:29;;;;;;;4.78;2.72;;;;;;;-146.27;77.86;42182.28;5069137;28;20032;-72
2024/02/16 03:33:55;;;;;;;5.00;3.22;;;;;;;-146.27;77.35;42192.25;5073069;28;20035;-72
2024/02/16 03:36:20;;;;;;;5.18;2.88;;;;;;;-146.27;77.21;42249.91;5071620;28;20024;-71
2024/02/16 03:38:49;;;;;;;4.85;2.78;;;;;;;-146.27;77.02;42206.16;5070995;28;20016;-71
2024/02/16 03:41:21;;;;;;;4.72;2.63;;;;;;;-146.27;77.47;42283.72;5065423;28;20020;-71
2024/02/16 03:43:46;;;;;;;4.22;2.83;;;;;;;-146.27;76.52;42168.38;5072954;28;20031;-71
2024/02/16 03:46:12;;;;;;;5.30;3.08;;;;;;;-146.27;75.83;42126.63;5069337;28;20508;-72
2024/02/16 03:48:39;;;;;;;8.55;3.08;;;;;;;-146.27;75.60;42126.63;5069297;28;20035;-72
2024/02/16 03:51:05;;;;;;;6.60;3.08;;;;;;;-146.27;75.61;42154.47;5070621;28;20434;-71
2024/02/16 03:53:31;;;;;;;7.45;2.85;;;;;;;-146.27;75.47;42140.53;5071308;28;20495;-72
2024/02/16 03:55:56;;;;;;;4.50;2.80;;;;;;;-146.27;75.45;42130.59;5071852;28;20073;-71
2024/02/16 03:58:22;;;;;;;11.55;2.97;;;;;;;-146.27;76.22;42206.16;5069955;28;20017;-73
2024/02/16 04:00:54;;;;;;;5.95;2.58;;;;;;;-146.27;75.85;42170.38;5071342;28;20028;-71
2024/02/16 04:03:20;;;;;;;7.25;3.05;;;;;;;-146.27;75.73;42182.28;5071543;28;20031;-71
2024/02/16 04:05:45;;;;;;;5.82;3.08;;;;;;;-146.27;75.87;42146.50;5072433;28;20032;-71
2024/02/16 04:08:11;;;;;;;6.03;3.03;;;;;;;-146.27;76.10;42237.97;5070424;28;20075;-70
2024/02/16 04:10:36;;;;;;;9.18;2.72;;;;;;;-146.27;76.00;42176.34;5069409;28;20385;-70
2024/02/16 04:13:02;;;;;;;6.50;3.00;;;;;;;-146.27;75.87;42168.38;5070298;28;20027;-72
2024/02/16 04:15:27;;;;;;;5.38;3.05;;;;;;;-146.27;75.90;42210.13;5070711;28;20012;-71
2024/02/16 04:17:53;;;;;;;11.40;3.45;;;;;;;-146.27;75.92;42220.06;5071398;28;20052;-72
2024/02/16 04:20:19;;;;;;;5.97;3.17;;;;;;;-146.27;75.67;42194.22;5071313;28;20021;-71
2024/02/16 04:22:45;;;;;;;8.68;3.22;;;;;;;-146.27;76.03;42194.22;5071331;28;20032;-73
2024/02/16 04:25:10;;;;;;;5.55;2.78;;;;;;;-146.27;76.09;42247.91;5067640;28;20609;-73
2024/02/16 04:27:36;;;;;;;7.38;2.83;;;;;;;-146.27;76.32;42216.09;5070495;28;20047;-73
2024/02/16 04:30:05;;;;;;;4.60;3.08;;;;;;;-146.27;75.13;42084.84;5068655;28;20017;-73
2024/02/16 04:32:31;;;;;;;7.35;3.00;;;;;;;-146.27;74.92;42130.59;5062263;28;20225;-73
2024/02/16 04:34:57;;;;;;;5.20;2.72;;;;;;;-146.27;74.88;42086.84;5077591;28;20129;-73
2024/02/16 04:37:23;;;;;;;5.78;3.03;;;;;;;-146.27;75.21;42162.41;5073204;28;20035;-73
2024/02/16 04:39:49;;;;;;;5.93;3.15;;;;;;;-146.27;75.54;42180.31;5068483;28;20039;-73
2024/02/16 04:42:15;;;;;;;4.47;2.78;;;;;;;-146.27;75.44;42166.38;5069421;28;20111;-73
2024/02/16 04:44:40;;;;;;;6.60;3.10;;;;;;;-146.27;75.79;42182.28;5066230;28;20151;-73
2024/02/16 04:47:06;;;;;;;6.43;3.65;;;;;;;-146.27;76.22;42234.00;5069513;28;20093;-73
2024/02/16 04:49:31;;;;;;;4.32;2.72;;;;;;;-146.27;76.36;42214.13;5068694;28;20031;-73
2024/02/16 04:51:57;;;;;;;10.18;2.92;;;;;;;-146.27;75.88;42158.44;5070226;28;20028;-74
2024/02/16 04:54:23;;;;;;;7.75;3.13;;;;;;;-146.27;75.86;42170.38;5066999;28;20055;-73
2024/02/16 04:56:49;;;;;;;6.85;3.35;;;;;;;-146.27;75.92;42192.25;5065137;28;20060;-73
2024/02/16 04:59:16;;;;;;;5.85;3.58;;;;;;;-146.27;76.26;42198.19;5068124;28;20073;-73
2024/02/16 05:01:46;;;;;;;6.13;3.17;;;;;;;-146.27;77.01;42245.94;5067340;28;20115;-73
2024/02/16 05:04:16;;;;;;;7.13;3.35;;;;;;;-146.27;76.99;42224.06;5069778;28;20453;-73
2024/02/16 05:06:46;;;;;;;4.60;2.92;;;;;;;-146.27;76.27;42154.47;5072246;28;20028;-73
2024/02/16 05:09:11;;;;;;;6.53;3.33;;;;;;;-146.27;75.96;42162.41;5070597;28;20029;-73
2024/02/16 05:11:37;;;;;;;5.28;2.90;;;;;;;-146.27;76.69;42208.16;5067335;28;20429;-73
2024/02/16 05:14:02;;;;;;;7.20;2.92;;;;;;;-146.27;76.27;42160.41;5067897;28;20028;-73
2024/02/16 05:16:28;;;;;;;6.55;3.15;;;;;;;-146.27;77.65;42313.53;5069080;28;20024;-73
2024/02/16 05:18:56;;;;;;;8.07;3.45;;;;;;;-146.27;77.25;42198.19;5069820;28;20021;-73
2024/02/16 05:21:22;;;;;;;5.68;3.17;;;;;;;-146.27;77.31;42210.13;5073015;28;20475;-73
2024/02/16 05:23:47;;;;;;;7.32;3.85;;;;;;;-146.27;77.50;42237.97;5066502;28;20044;-73
2024/02/16 05:26:12;;;;;;;6.75;3.75;;;;;;;-146.27;78.46;42287.69;5070817;28;20038;-72
2024/02/16 05:28:38;;;;;;;7.47;3.35;;;;;;;-146.27;77.80;42206.16;5071729;28;20111;-73
2024/02/16 05:31:17;;;;;;;6.30;3.50;;;;;;;-146.27;77.96;42230.03;5065156;28;20029;-72
2024/02/16 05:33:51;;;;;;;6.32;3.28;;;;;;;-146.27;78.19;42198.19;5068331;28;20056;-71
2024/02/16 05:36:27;;;;;;;6.97;3.17;;;;;;;-146.27;78.11;42224.06;5062468;28;20032;-71
2024/02/16 05:38:54;;;;;;;5.38;3.63;;;;;;;-146.27;78.13;42214.13;5070518;28;20096;-71
2024/02/16 05:41:20;;;;;;;5.55;2.95;;;;;;;-146.27;77.56;42154.47;5065753;28;20028;-71
2024/02/16 05:43:45;;;;;;;6.15;3.55;;;;;;;-146.27;77.85;42182.28;5069877;28;20032;-72
2024/02/16 05:46:17;;;;;;;5.13;3.08;;;;;;;-146.27;77.45;42118.66;5066833;28;20046;-71
2024/02/16 05:48:44;;;;;;;6.53;2.90;;;;;;;-146.27;77.38;42122.63;5069432;28;20032;-72
2024/02/16 05:51:12;;;;;;;8.77;3.47;;;;;;;-146.27;77.88;42168.38;5071315;28;20103;-71
2024/02/16 05:53:37;;;;;;;13.05;5.22;;;;;;;-146.27;78.41;42164.41;5058955;28;20633;-71
2024/02/16 05:56:03;;;;;;;8.38;3.10;;;;;;;-146.27;79.11;42236.00;5066988;28;20153;-71
2024/02/16 05:58:29;;;;;;;6.30;3.45;;;;;;;-146.27;78.21;42146.50;5066664;28;20052;-71
2024/02/16 06:00:54;;;;;;;8.40;3.60;;;;;;;-146.27;78.74;42172.34;5068963;28;20107;-71
2024/02/16 06:03:20;;;;;;;6.97;3.60;;;;;;;-146.27;78.66;42144.50;5067391;28;20553;-71
2024/02/16 06:05:46;;;;;;;7.93;3.40;;;;;;;-146.27;78.70;42134.56;5065495;28;20378;-72
2024/02/16 06:08:12;;;;;;;6.40;3.40;;;;;;;-146.27;78.79;42108.72;5070437;28;20073;-72
2024/02/16 06:10:38;;;;;;;5.72;3.60;;;;;;;-146.27;78.43;42112.69;5070109;28;20032;-71
2024/02/16 06:13:04;;;;;;;9.15;3.33;;;;;;;-146.27;78.34;42118.66;5069379;28;20039;-71
2024/02/16 06:15:29;;;;;;;6.20;3.15;;;;;;;-146.27;79.32;42140.53;5064784;28;20047;-71
2024/02/16 06:17:56;;;;;;;8.30;3.80;;;;;;;-146.27;79.01;42134.56;5063839;28;20070;-71
2024/02/16 06:20:21;;;;;;;8.98;3.47;;;;;;;-146.27;79.61;42184.28;5063448;28;20037;-71
2024/02/16 06:22:47;;;;;;;6.60;3.65;;;;;;;-146.27;80.61;42224.06;5069093;28;20485;-71
2024/02/16 06:25:12;;;;;;;5.60;3.80;;;;;;;-146.27;80.91;42210.13;5070123;28;20032;-71
2024/02/16 06:27:38;;;;;;;9.23;3.63;;;;;;;-146.27;80.84;42228.03;5067901;28;20060;-72
2024/02/16 06:30:12;;;;;;;7.63;4.07;;;;;;;-146.27;80.03;42094.81;5054412;28;20064;-71
2024/02/16 06:32:40;;;;;;;7.40;3.95;;;;;;;-146.27;80.84;42166.38;5049952;28;20032;-71
2024/02/16 06:35:07;;;;;;;10.48;3.80;;;;;;;-146.27;81.13;42138.53;5061920;28;20089;-72
2024/02/16 06:37:32;;;;;;;12.40;4.10;;;;;;;-146.27;81.09;42138.53;5066659;28;20033;-73
2024/02/16 06:39:58;;;;;;;11.38;4.13;;;;;;;-146.27;81.27;42154.47;5067956;28;20032;-71
2024/02/16 06:42:23;;;;;;;10.02;4.25;;;;;;;-146.27;81.25;42112.69;5063573;28;20373;-71
2024/02/16 06:44:49;;;;;;;6.55;3.55;;;;;;;-146.27;80.83;42122.63;5065327;28;20443;-71
2024/02/16 06:47:15;;;;;;;11.40;4.85;;;;;;;-146.27;80.55;42068.94;5064371;28;20020;-71
2024/02/16 06:49:40;;;;;;;9.98;4.50;;;;;;;-146.27;80.26;41991.41;5070464;28;20392;-71
2024/02/16 06:52:06;;;;;;;8.77;4.10;;;;;;;-146.27;79.99;41935.72;5074171;28;20028;-71
2024/02/16 06:54:31;;;;;;;7.97;4.15;;;;;;;-146.27;80.29;42015.25;5073978;28;20060;-71
2024/02/16 06:56:57;;;;;;;7.15;3.67;;;;;;;-146.27;80.28;42001.34;5075266;28;20045;-71
2024/02/16 06:59:22;;;;;;;9.40;4.55;;;;;;;-146.27;79.72;41951.63;5071020;28;20059;-72
2024/02/16 07:01:47;;;;;;;9.65;3.85;;;;;;;-146.27;80.67;42072.94;5063785;28;20390;-70
2024/02/16 07:04:14;;;;;;;8.25;4.05;;;;;;;-146.27;80.10;41951.63;5064959;28;20154;-71
2024/02/16 07:06:40;;;;;;;7.25;3.83;;;;;;;-146.27;80.29;41943.66;5069342;28;20032;-71
2024/02/16 07:09:06;;;;;;;7.32;3.88;;;;;;;-146.27;80.72;42001.34;5064524;28;20464;-71
2024/02/16 07:11:31;;;;;;;7.10;4.15;;;;;;;-146.27;80.62;41995.38;5066885;28;20126;-71
2024/02/16 07:13:57;;;;;;;5.85;4.03;;;;;;;-146.27;80.04;41943.66;5067677;28;20036;-71
2024/02/16 07:16:23;;;;;;;6.88;3.92;;;;;;;-146.27;81.10;42041.09;5063579;28;20020;-71
2024/02/16 07:18:48;;;;;;;7.95;4.43;;;;;;;-146.27;80.63;42039.13;5068472;28;20044;-71
2024/02/16 07:21:13;;;;;;;8.65;4.25;;;;;;;-146.27;81.30;42039.13;5070324;28;20025;-72
2024/02/16 07:23:39;;;;;;;6.03;3.70;;;;;;;-146.27;80.78;42011.28;5068516;28;20049;-72
2024/02/16 07:26:05;;;;;;;6.25;4.00;;;;;;;-146.27;80.20;41971.50;5070007;28;20074;-72
2024/02/16 07:28:31;;;;;;;7.93;3.85;;;;;;;-146.27;81.27;42104.75;5073308;28;20050;-71
2024/02/16 07:30:57;;;;;;;6.18;4.15;;;;;;;-146.27;80.92;42068.94;5071181;28;20132;-70
2024/02/16 07:33:24;;;;;;;7.65;3.92;;;;;;;-146.27;80.26;41995.38;5070144;28;20119;-72
2024/02/16 07:35:50;;;;;;;8.18;3.97;;;;;;;-146.27;81.27;42128.59;5070870;28;20024;-72
2024/02/16 07:38:15;;;;;;;8.68;4.05;;;;;;;-146.27;80.78;42110.72;5067499;28;20028;-73
2024/02/16 07:40:45;;;;;;;6.18;4.00;;;;;;;-146.27;82.22;42267.81;5069352;28;20050;-72
2024/02/16 07:43:10;;;;;;;7.00;4.28;;;;;;;-146.27;80.77;42142.53;5073795;28;20116;-71
2024/02/16 07:45:36;;;;;;;8.70;4.07;;;;;;;-146.27;80.69;42182.28;5071383;28;20115;-71
2024/02/16 07:48:05;;;;;;;9.35;4.47;;;;;;;-146.27;80.34;42156.44;5071498;28;20028;-71
2024/02/16 07:50:30;;;;;;;7.75;3.72;;;;;;;-146.27;80.49;42247.91;5072426;28;20063;-72
2024/02/16 07:52:56;;;;;;;6.40;4.07;;;;;;;-146.27;80.42;42186.28;5072571;28;20060;-71
2024/02/16 07:55:22;;;;;;;5.20;3.38;;;;;;;-146.27;80.13;42210.13;5072549;28;20054;-73
2024/02/16 07:57:48;;;;;;;9.20;4.05;;;;;;;-146.27;80.68;42267.81;5072583;28;20028;-73
2024/02/16 08:00:15;;;;;;;7.03;3.85;;;;;;;-146.27;80.89;42277.75;5072532;28;20428;-73
2024/02/16 08:02:43;;;;;;;8.20;4.22;;;;;;;-146.27;82.00;42377.19;5070511;28;20105;-73
2024/02/16 08:05:08;;;;;;;8.27;4.05;;;;;;;-146.27;81.06;42210.13;5071849;28;20024;-73
2024/02/16 08:07:34;;;;;;;8.60;4.22;;;;;;;-146.27;81.16;42232.00;5072376;28;20100;-73
2024/02/16 08:10:00;;;;;;;10.98;4.35;;;;;;;-146.27;80.45;42194.22;5071564;28;20032;-73
2024/02/16 08:12:27;;;;;;;8.50;4.22;;;;;;;-146.27;80.45;42170.38;5071325;28;20408;-73
2024/02/16 08:14:53;;;;;;;6.80;4.00;;;;;;;-146.27;80.24;42178.31;5071822;28;20075;-73
2024/02/16 08:17:18;;;;;;;12.27;4.38;;;;;;;-146.27;80.89;42206.16;5071034;28;20643;-74
2024/02/16 08:19:53;;;;;;;10.77;4.55;;;;;;;-146.27;81.60;42279.75;5071680;28;20625;-73
2024/02/16 08:22:18;;;;;;;6.85;4.00;;;;;;;-146.27;81.55;42327.47;5072035;28;20034;-73
2024/02/16 08:24:46;;;;;;;9.20;4.38;;;;;;;-146.27;81.32;42222.06;5072050;28;20040;-73
2024/02/16 08:27:12;;;;;;;7.78;4.30;;;;;;;-146.27;81.79;42285.72;5072025;28;20033;-73
2024/02/16 08:29:38;;;;;;;8.13;3.97;;;;;;;-146.27;82.56;42365.25;5072059;28;20103;-73
2024/02/16 08:32:05;;;;;;;8.30;4.00;;;;;;;-146.27;81.85;42230.03;5069999;28;20116;-73
2024/02/16 08:34:30;;;;;;;8.20;4.38;;;;;;;-146.27;81.59;42170.38;5071595;28;20037;-73
2024/02/16 08:36:56;;;;;;;11.38;4.43;;;;;;;-146.27;84.13;42305.59;5071733;28;20056;-73
2024/02/16 08:39:24;;;;;;;6.70;3.75;;;;;;;-146.27;84.92;42285.72;5059667;28;20044;-73
2024/02/16 08:41:51;;;;;;;8.68;4.30;;;;;;;-146.27;86.17;42345.38;5068729;28;20095;-74
2024/02/16 08:44:18;;;;;;;6.55;4.57;;;;;;;-146.27;86.16;42359.28;5070300;28;20519;-74
2024/02/16 08:46:44;;;;;;;8.57;4.63;;;;;;;-146.27;86.21;42369.22;5069813;28;20111;-74
2024/02/16 08:49:09;;;;;;;9.00;4.90;;;;;;;-146.27;87.03;42464.69;5071026;28;20116;-74
2024/02/16 08:51:35;;;;;;;9.13;4.60;;;;;;;-146.27;86.04;42333.44;5071126;28;20032;-74
2024/02/16 08:54:01;;;;;;;5.57;4.43;;;;;;;-146.27;85.56;42345.38;5071525;28;20020;-73
2024/02/16 08:56:29;;;;;;;7.88;4.90;;;;;;;-146.27;85.26;42287.69;5071446;28;20032;-74
2024/02/16 08:58:54;;;;;;;8.75;4.80;;;;;;;-146.27;85.39;42281.72;5070939;28;20030;-74
2024/02/16 09:01:34;;;;;;;9.95;4.30;;;;;;;-146.27;84.31;42230.03;5070212;28;20551;-74
2024/02/16 09:04:00;;;;;;;10.00;3.92;;;;;;;-146.27;85.43;42273.78;5070674;28;20030;-74
2024/02/16 09:06:26;;;;;;;10.02;5.38;;;;;;;-146.27;85.16;42160.41;5071214;28;20035;-74
2024/02/16 09:08:51;;;;;;;13.68;5.43;;;;;;;-146.27;84.94;42146.50;5070870;28;20028;-74
2024/02/16 09:11:17;;;;;;;9.65;4.60;;;;;;;-146.27;85.04;42212.13;5054099;28;20031;-72
2024/02/16 09:13:42;;;;;;;11.55;4.95;;;;;;;-146.27;84.51;42118.66;5071548;28;20024;-73
2024/02/16 09:16:08;;;;;;;9.90;5.07;;;;;;;-146.27;84.39;42114.69;5071084;28;20067;-73
2024/02/16 09:18:33;;;;;;;13.52;5.78;;;;;;;-146.27;84.80;42138.53;5070556;28;20143;-74
2024/02/16 09:20:59;;;;;;;11.93;5.97;;;;;;;-146.27;85.47;42170.38;5070101;28;20020;-74
2024/02/16 09:23:25;;;;;;;15.55;6.35;;;;;;;-146.27;85.65;42210.13;5070594;28;20176;-74
2024/02/16 09:25:51;;;;;;;13.02;6.18;;;;;;;-146.27;86.45;42269.78;5070670;28;20108;-74
2024/02/16 09:28:20;;;;;;;17.33;6.32;;;;;;;-146.27;86.86;42243.94;5070602;28;20714;-74
2024/02/16 09:30:46;;;;;;;15.23;6.88;;;;;;;-146.27;86.15;42144.50;5050998;28;20099;-75
2024/02/16 09:33:11;;;;;;;20.98;6.55;;;;;;;-146.27;86.22;42178.31;5051057;28;20104;-75
2024/02/16 09:35:37;;;;;;;14.25;6.78;;;;;;;-146.27;86.68;42198.19;5051014;28;20028;-74
2024/02/16 09:38:03;;;;;;;16.73;7.75;;;;;;;-146.27;86.47;42140.53;5060424;28;20122;-75
2024/02/16 09:40:29;;;;;;;19.88;7.10;;;;;;;-146.27;87.74;42216.09;5070078;28;20032;-74
2024/02/16 09:42:54;;;;;;;20.80;8.10;;;;;;;-146.27;88.51;42251.91;5069527;28;20039;-74
2024/02/16 09:45:20;;;;;;;19.05;7.80;;;;;;;-146.27;87.99;42106.72;5068427;28;20027;-75
2024/02/16 09:47:49;;;;;;;22.33;8.23;;;;;;;-146.27;88.64;42102.75;5071540;28;20029;-74
2024/02/16 09:50:15;;;;;;;21.83;8.90;;;;;;;-146.27;89.10;42194.22;5069613;28;20111;-74
2024/02/16 09:52:40;;;;;;;24.90;9.40;;;;;;;-146.27;91.34;42158.44;5070475;28;20147;-75
2024/02/16 09:55:11;;;;;;;21.38;9.32;;;;;;;-146.27;91.67;42156.44;5068438;28;20995;-74
2024/02/16 09:57:36;;;;;;;34.15;10.95;;;;;;;-146.27;93.14;42144.50;5067772;28;20036;-75
2024/02/16 10:00:03;;;;;;;26.48;10.18;;;;;;;-146.27;93.79;42130.59;5069572;28;20055;-74
2024/02/16 10:02:48;;;;;;;29.52;10.77;;;;;;;-146.27;94.24;42130.59;5069391;28;20119;-74
2024/02/16 10:05:22;;;;;;;27.80;10.70;;;;;;;-146.27;94.52;42082.88;5069174;28;20029;-74
2024/02/16 10:07:48;;;;;;;26.92;9.98;;;;;;;-146.27;95.52;42126.63;5082092;28;20063;-74
2024/02/16 10:10:25;;;;;;;25.35;10.55;;;;;;;-146.27;95.34;42124.63;5070202;28;20047;-74
2024/02/16 10:13:11;;;;;;;24.15;9.00;;;;;;;-146.27;95.49;42130.59;5079345;28;20028;-74
2024/02/16 10:15:37;;;;;;;28.77;10.05;;;;;;;-146.27;95.86;42098.78;5050289;28;20024;-74
2024/02/16 10:18:04;;;;;;;21.50;9.55;;;;;;;-146.27;95.76;42142.53;5050225;28;20512;-74
2024/02/16 10:20:30;;;;;;;17.38;8.55;;;;;;;-146.27;96.72;42150.47;5062722;28;20028;-74
2024/02/16 10:23:07;;;;;;;22.33;9.13;;;;;;;-146.27;96.04;42055.03;5069858;28;20029;-74
2024/02/16 10:25:33;;;;;;;20.48;7.90;;;;;;;-146.27;96.52;42134.56;5070001;28;20086;-74
2024/02/16 10:28:09;;;;;;;15.77;8.13;;;;;;;-146.27;96.66;42122.63;5069791;28;20036;-74
2024/02/16 10:30:40;;;;;;;22.95;8.40;;;;;;;-146.27;97.55;42116.66;5070191;28;20107;-74
2024/02/16 10:33:06;;;;;;;14.45;7.03;;;;;;;-146.27;97.94;42104.75;5070176;28;20078;-74
2024/02/16 10:35:34;;;;;;;14.27;7.25;;;;;;;-146.27;97.27;42055.03;5069985;28;20024;-74
2024/02/16 10:38:04;;;;;;;17.88;6.75;;;;;;;-146.27;97.11;41987.41;5069109;28;20644;-75
2024/02/16 10:40:32;;;;;;;12.30;7.05;;;;;;;-146.27;96.55;42023.22;5070029;28;20468;-74
2024/02/16 10:43:03;;;;;;;13.85;6.57;;;;;;;-146.27;97.29;41979.47;5069935;28;20104;-75
2024/02/16 10:45:30;;;;;;;11.95;6.65;;;;;;;-146.27;97.62;41999.34;5070011;28;20060;-74
2024/02/16 10:47:55;;;;;;;12.95;7.35;;;;;;;-146.27;97.06;41991.41;5069928;28;20074;-75
2024/02/16 10:50:21;;;;;;;14.90;7.22;;;;;;;-146.27;97.45;42023.22;5068494;28;20036;-74
2024/02/16 10:52:47;;;;;;;15.95;7.03;;;;;;;-146.27;97.32;42039.13;5069817;28;20038;-74
2024/02/16 10:55:15;;;;;;;14.57;6.55;;;;;;;-146.27;97.83;42066.97;5070009;28;20033;-74
2024/02/16 10:57:41;;;;;;;19.25;8.13;;;;;;;-146.27;97.40;41991.41;5073829;28;20099;-74
2024/02/16 11:00:09;;;;;;;14.95;7.20;;;;;;;-146.27;97.67;42031.16;5073370;28;20484;-74
2024/02/16 11:03:02;;;;;;;19.95;7.05;;;;;;;-146.27;97.79;42062.97;5073498;28;20028;-75
2024/02/16 11:05:42;;;;;;;14.43;7.50;;;;;;;-146.27;98.12;42106.72;5073466;28;20036;-74
2024/02/16 11:08:13;;;;;;;15.88;6.50;;;;;;;-146.27;98.07;42070.94;5071916;28;20079;-74
2024/02/16 11:10:38;;;;;;;15.38;6.63;;;;;;;-146.27;98.14;42001.34;5072275;28;20032;-74
2024/02/16 11:13:04;;;;;;;13.02;6.18;;;;;;;-146.27;98.30;42011.28;5073431;28;20465;-74
2024/02/16 11:15:34;;;;;;;11.95;5.82;;;;;;;-146.27;97.94;42078.88;5071879;28;20032;-74
2024/02/16 11:18:01;;;;;;;14.70;6.18;;;;;;;-146.27;97.69;42007.31;5073376;28;20423;-74
2024/02/16 11:20:27;;;;;;;9.82;4.45;;;;;;;-146.27;98.07;42066.97;5071184;28;20489;-74
2024/02/16 11:22:53;;;;;;;11.30;4.90;;;;;;;-146.27;98.55;42096.78;5072638;28;20052;-74